KSCK/SCK METAR and TAF weather

Enter ICAO airport designator
Station Type Date Time Source
KSCK METAR 2019/12/16 05:55 UTC NOAA

KSCK 160555Z AUTO 32005KT 10SM CLR 07/03 A3025 RMK AO2 SLP244 T00720033 10133 20067 53006


Station Type Date Time Source
KSCK Decoded METAR 2019/12/16 05:55 UTC NOAA

STOCKTON METROPOLITAN AIRPORT , CA, United States (KSCK) 37-54N 121-14W 10M
Dec 16, 2019 - 12:55 AM EST / 2019.12.16 0555 UTC
Wind: from the NW (320 degrees) at 6 MPH (5 KT):0
Visibility: 10 mile(s):0
Sky conditions: clear
Temperature: 45.0 F (7.2 C)
Dew Point: 37.9 F (3.3 C)
Relative Humidity: 76%
Pressure (altimeter): 30.25 in. Hg (1024 hPa)
Pressure tendency: 0.02 inches (0.6 hPa) higher than three hours ago
ob: KSCK 160555Z AUTO 32005KT 10SM CLR 07/03 A3025 RMK AO2 SLP244 T00720033 10133 20067 53006
cycle: 6

Station Type Date Time Source
KSCK TAF 2019/12/16 06:27 UTC NOAA

TAF KSCK 160524Z 1606/1706 33006KT P6SM SKC
TEMPO 1613/1617 2SM BR

Example: see airport list